Time;durP1;ratioP1;P1;durP2;ratioP2;P2;SDS_P1;SDS_P2;PMS_P1;PMS_P2;Temp;Humidity;BMP_temperature;BMP_pressure;BME280_temperature;BME280_humidity;BME280_pressure;Samples;Min_cycle;Max_cycle;Signal;HPM_P1;HPM_P2
2022/09/03 00:02:05;;;;;;;;;;;;;;;15.60;100.00;164644.16;4992184;28;20073;-69
2022/09/03 00:04:39;;;;;;;3.88;1.23;;;;;;;15.59;100.00;164641.47;4991173;28;19968;-69
2022/09/03 00:07:32;;;;;;;4.65;2.35;;;;;;;15.58;100.00;164638.75;4993001;28;20042;-69
2022/09/03 00:10:07;;;;;;;11.05;1.88;;;;;;;15.52;100.00;164623.84;4970603;28;20050;-69
2022/09/03 00:12:38;;;;;;;8.57;1.85;;;;;;;15.49;100.00;164617.06;4973151;28;20027;-69
2022/09/03 00:15:14;;;;;;;1.42;1.27;;;;;;;15.48;100.00;164614.34;4971368;28;20046;-69
2022/09/03 00:17:54;;;;;;;1.77;1.42;;;;;;;15.44;100.00;164603.56;4988562;28;20049;-68
2022/09/03 00:20:40;;;;;;;1.40;1.17;;;;;;;15.38;100.00;164588.66;4990842;28;20089;-69
2022/09/03 00:23:09;;;;;;;1.75;1.50;;;;;;;15.37;100.00;164584.59;4991679;28;20053;-69
2022/09/03 00:25:39;;;;;;;4.75;1.75;;;;;;;15.32;100.00;164571.03;4990376;28;20035;-69
2022/09/03 00:28:12;;;;;;;3.00;2.25;;;;;;;15.28;100.00;164561.56;4991887;28;20030;-69
2022/09/03 00:30:40;;;;;;;6.70;1.63;;;;;;;15.26;100.00;164554.78;4989936;28;20082;-68
2022/09/03 00:33:21;;;;;;;5.23;2.47;;;;;;;15.21;100.00;164542.59;4992031;28;20076;-68
2022/09/03 00:36:03;;;;;;;2.80;1.90;;;;;;;15.16;100.00;164529.09;4990340;28;20045;-68
2022/09/03 00:38:29;;;;;;;2.88;2.53;;;;;;;15.12;100.00;164518.22;4991554;28;20104;-68
2022/09/03 00:41:32;;;;;;;3.88;1.50;;;;;;;15.07;100.00;164507.44;4990265;28;20433;-68
2022/09/03 00:44:33;;;;;;;8.50;2.00;;;;;;;15.02;100.00;164492.53;4971255;28;20042;-68
2022/09/03 00:47:19;;;;;;;2.35;1.52;;;;;;;14.99;100.00;164484.44;4970573;28;20089;-68
2022/09/03 00:49:44;;;;;;;2.05;1.50;;;;;;;14.97;100.00;164479.00;4987682;28;20513;-69
2022/09/03 00:52:38;;;;;;;2.33;1.42;;;;;;;14.94;100.00;164470.88;4991599;28;20101;-68
2022/09/03 00:55:12;;;;;;;2.38;1.30;;;;;;;14.88;100.00;164457.34;4989864;28;20414;-68
2022/09/03 00:58:10;;;;;;;1.92;1.67;;;;;;;14.84;100.00;164446.53;4991609;28;20026;-68
2022/09/03 01:00:37;;;;;;;2.17;1.40;;;;;;;14.79;100.00;164432.97;4989955;28;20551;-68
2022/09/03 01:03:23;;;;;;;4.50;2.00;;;;;;;14.74;100.00;164420.78;4991552;28;20030;-65
2022/09/03 01:06:09;;;;;;;2.20;2.00;;;;;;;14.73;100.00;164416.75;4990199;28;20555;-67
2022/09/03 01:09:18;;;;;;;2.47;1.60;;;;;;;14.69;100.00;164405.94;4990893;28;20125;-68
2022/09/03 01:12:04;;;;;;;6.47;1.60;;;;;;;14.64;100.00;164392.31;4977218;28;20043;-67
2022/09/03 01:14:54;;;;;;;7.07;2.20;;;;;;;14.63;100.00;164389.66;4977545;28;20042;-67
2022/09/03 01:17:45;;;;;;;3.80;2.88;;;;;;;14.56;100.00;164373.38;4991821;28;20045;-68
2022/09/03 01:20:16;;;;;;;2.95;1.75;;;;;;;14.54;100.00;164366.63;4989940;28;20105;-67
2022/09/03 01:23:14;;;;;;;5.57;1.75;;;;;;;14.46;100.00;164346.34;4990609;28;20054;-67
2022/09/03 01:26:04;;;;;;;4.60;1.80;;;;;;;14.42;100.00;164336.88;4989663;28;20512;-67
2022/09/03 01:28:55;;;;;;;2.00;1.42;;;;;;;14.37;100.00;164323.31;4991062;28;20457;-67
2022/09/03 01:31:44;;;;;;;1.60;1.50;;;;;;;14.34;100.00;164313.84;4970265;28;20117;-67
2022/09/03 01:34:28;;;;;;;1.80;1.30;;;;;;;14.31;100.00;164305.75;4970666;28;20038;-68
2022/09/03 01:37:05;;;;;;;4.00;1.05;;;;;;;14.25;100.00;164292.25;4971226;28;20041;-68
2022/09/03 01:39:54;;;;;;;3.55;2.25;;;;;;;14.21;100.00;164280.06;4970227;28;20516;-67
2022/09/03 01:42:34;;;;;;;2.92;2.60;;;;;;;14.23;100.00;164285.44;4971965;28;20394;-67
2022/09/03 01:45:07;;;;;;;2.85;2.35;;;;;;;14.22;100.00;164282.78;4969982;28;20158;-67
2022/09/03 01:47:53;;;;;;;3.10;2.22;;;;;;;14.20;100.00;164277.34;4972589;28;20027;-68
2022/09/03 01:50:25;;;;;;;4.80;1.60;;;;;;;14.17;100.00;164270.59;4973995;28;20097;-67
2022/09/03 01:53:03;;;;;;;4.43;2.05;;;;;;;14.10;100.00;164251.66;4975560;28;20037;-67
2022/09/03 01:55:45;;;;;;;1.75;1.65;;;;;;;14.13;100.00;164259.75;4988970;28;20049;-67
2022/09/03 01:58:20;;;;;;;2.80;1.70;;;;;;;14.09;100.00;164250.28;4994737;28;20033;-67
2022/09/03 02:00:50;;;;;;;2.97;1.20;;;;;;;14.07;100.00;164243.53;4992637;28;20035;-67
2022/09/03 02:03:16;;;;;;;2.10;1.17;;;;;;;13.99;100.00;164223.25;4980357;28;20100;-67
2022/09/03 02:05:42;;;;;;;2.35;1.58;;;;;;;14.02;100.00;164230.03;4993359;28;20046;-65
2022/09/03 02:08:09;;;;;;;2.55;2.13;;;;;;;13.99;100.00;164221.88;4994162;28;20556;-65
2022/09/03 02:11:00;;;;;;;1.42;1.17;;;;;;;13.95;100.00;164213.78;4993099;28;20046;-65
2022/09/03 02:13:39;;;;;;;6.35;1.58;;;;;;;13.91;100.00;164202.94;4994792;28;20030;-65
2022/09/03 02:16:14;;;;;;;3.53;1.73;;;;;;;13.92;100.00;164205.66;4993231;28;20050;-65
2022/09/03 02:18:44;;;;;;;2.08;1.40;;;;;;;13.90;100.00;164198.91;4993078;28;20038;-65
2022/09/03 02:21:13;;;;;;;1.45;1.35;;;;;;;13.87;100.00;164192.16;4994324;28;20485;-67
2022/09/03 02:23:40;;;;;;;6.75;1.50;;;;;;;13.84;100.00;164184.00;4992586;28;20081;-67
2022/09/03 02:26:07;;;;;;;2.03;1.70;;;;;;;13.83;100.00;164181.31;4994513;28;20057;-67
2022/09/03 02:28:32;;;;;;;1.90;1.80;;;;;;;13.81;100.00;164175.94;4993937;28;20022;-67
2022/09/03 02:30:58;;;;;;;5.03;1.35;;;;;;;13.80;100.00;164173.22;4992856;28;20054;-67
2022/09/03 02:33:24;;;;;;;1.98;1.77;;;;;;;13.79;100.00;164171.84;4994277;28;20057;-68
2022/09/03 02:35:51;;;;;;;4.35;1.35;;;;;;;13.77;100.00;164166.47;4991982;28;20042;-65
2022/09/03 02:38:24;;;;;;;4.00;1.35;;;;;;;13.75;100.00;164159.66;4994376;28;20037;-65
2022/09/03 02:40:50;;;;;;;3.45;1.35;;;;;;;13.74;100.00;164158.31;4992341;28;20042;-66
2022/09/03 02:43:23;;;;;;;2.97;1.88;;;;;;;13.73;100.00;164155.63;4993983;28;20034;-67
2022/09/03 02:45:52;;;;;;;2.70;1.83;;;;;;;13.71;100.00;164148.84;4992355;28;20050;-67
2022/09/03 02:48:22;;;;;;;12.32;2.33;;;;;;;13.68;100.00;164142.09;4994548;28;20030;-67
2022/09/03 02:50:47;;;;;;;4.30;1.48;;;;;;;13.69;100.00;164143.44;4991647;28;20047;-67
2022/09/03 02:53:13;;;;;;;2.70;1.50;;;;;;;13.63;100.00;164129.94;4993844;28;20097;-67
2022/09/03 02:55:38;;;;;;;5.00;1.88;;;;;;;13.62;100.00;164127.22;4992001;28;20038;-67
2022/09/03 02:58:05;;;;;;;6.00;1.52;;;;;;;13.61;100.00;164124.50;4993153;28;20437;-68
2022/09/03 03:00:32;;;;;;;2.17;1.98;;;;;;;13.59;100.00;164119.09;4991109;28;20101;-69
2022/09/03 03:02:57;;;;;;;7.70;1.58;;;;;;;13.55;100.00;164108.28;4993973;28;20026;-69
2022/09/03 03:05:34;;;;;;;3.63;1.15;;;;;;;13.52;100.00;164100.16;4992394;28;20053;-69
2022/09/03 03:08:00;;;;;;;4.80;1.77;;;;;;;13.49;100.00;164092.06;4993793;28;20499;-69
2022/09/03 03:10:25;;;;;;;2.50;1.20;;;;;;;13.47;100.00;164086.66;4991942;28;20135;-69
2022/09/03 03:12:51;;;;;;;5.25;1.70;;;;;;;13.45;100.00;164081.22;4993285;28;20022;-69
2022/09/03 03:15:16;;;;;;;1.75;1.20;;;;;;;13.44;100.00;164078.56;4991957;28;20039;-69
2022/09/03 03:17:41;;;;;;;7.43;2.42;;;;;;;13.41;100.00;164070.44;4993537;28;20026;-69
2022/09/03 03:20:07;;;;;;;4.18;1.60;;;;;;;13.40;100.00;164069.09;4991998;28;20054;-69
2022/09/03 03:22:33;;;;;;;2.53;1.60;;;;;;;13.38;100.00;164062.25;4991994;28;20031;-69
2022/09/03 03:24:58;;;;;;;5.80;1.63;;;;;;;13.36;100.00;164056.88;4991873;28;20517;-67
2022/09/03 03:27:23;;;;;;;4.18;1.67;;;;;;;13.32;100.00;164048.75;4993208;28;20026;-67
2022/09/03 03:29:49;;;;;;;1.67;1.58;;;;;;;13.31;100.00;164046.03;4991192;28;20112;-67
2022/09/03 03:32:14;;;;;;;7.35;1.70;;;;;;;13.26;100.00;164032.53;4993615;28;20096;-67
2022/09/03 03:34:40;;;;;;;2.67;1.60;;;;;;;13.26;100.00;164032.53;4991598;28;20410;-68
2022/09/03 03:37:05;;;;;;;2.40;2.10;;;;;;;13.20;100.00;164014.94;4992980;28;20026;-71
2022/09/03 03:39:31;;;;;;;2.08;1.30;;;;;;;13.19;100.00;164013.59;4991634;28;20461;-69
2022/09/03 03:41:56;;;;;;;2.08;1.23;;;;;;;13.19;100.00;164013.59;4993123;28;20029;-68
2022/09/03 03:44:22;;;;;;;3.65;2.25;;;;;;;13.17;100.00;164008.19;4991072;28;20034;-68
2022/09/03 03:46:47;;;;;;;1.98;1.85;;;;;;;13.14;100.00;164000.09;4992937;28;20037;-68
2022/09/03 03:49:12;;;;;;;1.67;1.30;;;;;;;13.13;100.00;163997.38;4991680;28;20406;-68
2022/09/03 03:51:39;;;;;;;1.38;1.27;;;;;;;13.12;100.00;163994.66;4992076;28;20052;-69
2022/09/03 03:54:05;;;;;;;1.63;1.42;;;;;;;13.07;100.00;163982.50;4991140;28;20054;-67
2022/09/03 03:56:30;;;;;;;2.55;1.80;;;;;;;13.05;100.00;163975.75;4992524;28;20106;-68
2022/09/03 03:58:58;;;;;;;3.20;1.52;;;;;;;13.09;100.00;163986.53;4991194;28;20153;-68
2022/09/03 04:01:25;;;;;;;4.55;1.38;;;;;;;13.08;100.00;163983.81;4992646;28;20034;-68
2022/09/03 04:03:51;;;;;;;1.33;1.25;;;;;;;12.99;100.00;163962.19;4991007;28;20130;-67
2022/09/03 04:06:19;;;;;;;3.35;2.00;;;;;;;13.00;100.00;163963.56;4992347;28;20382;-68
2022/09/03 04:08:46;;;;;;;2.25;2.08;;;;;;;13.01;100.00;163967.63;4990706;28;20053;-67
2022/09/03 04:11:15;;;;;;;3.60;1.48;;;;;;;13.00;100.00;163964.91;4992276;28;20030;-68
2022/09/03 04:13:42;;;;;;;1.33;1.23;;;;;;;12.99;100.00;163960.88;4990678;28;20018;-67
2022/09/03 04:16:10;;;;;;;1.77;1.55;;;;;;;12.97;100.00;163956.81;4992556;28;20026;-67
2022/09/03 04:18:36;;;;;;;2.85;1.30;;;;;;;12.91;100.00;163940.63;4992059;28;20393;-61
2022/09/03 04:21:04;;;;;;;2.17;1.45;;;;;;;12.91;100.00;163940.63;4989214;28;20050;-72
2022/09/03 04:23:34;;;;;;;4.20;1.50;;;;;;;12.90;100.00;163937.91;4992268;28;20077;-70
2022/09/03 04:26:00;;;;;;;6.78;2.05;;;;;;;12.83;100.00;163918.97;4987669;28;20054;-65
2022/09/03 04:28:25;;;;;;;2.05;1.75;;;;;;;12.86;100.00;163927.06;4992130;28;20081;-65
2022/09/03 04:30:51;;;;;;;2.83;1.77;;;;;;;12.90;100.00;163937.91;4990239;28;20077;-65
2022/09/03 04:33:17;;;;;;;8.45;2.15;;;;;;;12.91;100.00;163940.63;4992396;28;20077;-64
2022/09/03 04:35:43;;;;;;;2.58;2.42;;;;;;;12.92;100.00;163943.28;4989812;28;20042;-64
2022/09/03 04:38:08;;;;;;;5.20;1.70;;;;;;;12.90;100.00;163937.91;4992132;28;20394;-66
2022/09/03 04:40:33;;;;;;;3.58;1.65;;;;;;;12.88;100.00;163932.47;4981793;28;20043;-62
2022/09/03 04:42:59;;;;;;;4.32;1.77;;;;;;;12.87;100.00;163928.44;4980982;28;20034;-62
2022/09/03 04:45:25;;;;;;;2.80;2.00;;;;;;;12.87;100.00;163929.78;4990648;28;20042;-62
2022/09/03 04:48:03;;;;;;;3.92;1.60;;;;;;;12.85;100.00;163924.34;4990682;28;20030;-62
2022/09/03 04:50:31;;;;;;;2.25;1.40;;;;;;;12.83;100.00;163918.97;4989795;28;20049;-62
2022/09/03 04:53:01;;;;;;;2.05;1.90;;;;;;;12.78;100.00;163905.44;4990316;28;20026;-62
2022/09/03 04:55:27;;;;;;;2.88;1.75;;;;;;;12.80;100.00;163910.84;4989299;28;20053;-62
2022/09/03 04:57:53;;;;;;;1.85;1.63;;;;;;;12.80;100.00;163910.84;4986972;28;20034;-62
2022/09/03 05:00:19;;;;;;;3.83;1.80;;;;;;;12.80;100.00;163910.84;4989964;28;20050;-62
2022/09/03 05:02:48;;;;;;;2.45;1.98;;;;;;;12.78;100.00;163905.44;4991535;28;20037;-62
2022/09/03 05:05:13;;;;;;;4.25;1.92;;;;;;;12.75;100.00;163897.34;4990154;28;20065;-62
2022/09/03 05:07:39;;;;;;;4.22;1.52;;;;;;;12.72;100.00;163889.22;4991548;28;20385;-62
2022/09/03 05:10:07;;;;;;;8.13;2.90;;;;;;;12.76;100.00;163900.06;4990494;28;20042;-62
2022/09/03 05:12:33;;;;;;;2.25;2.05;;;;;;;12.76;100.00;163900.06;4990779;28;20551;-62
2022/09/03 05:14:58;;;;;;;3.30;1.83;;;;;;;12.75;100.00;163898.69;4990233;28;20066;-62
2022/09/03 05:17:24;;;;;;;3.53;1.42;;;;;;;12.78;100.00;163905.44;4991710;28;20042;-62
2022/09/03 05:19:50;;;;;;;9.88;1.63;;;;;;;12.81;100.00;163913.56;4989453;28;20070;-62
2022/09/03 05:22:20;;;;;;;4.53;1.80;;;;;;;12.84;100.00;163921.69;4993034;28;20088;-62
2022/09/03 05:24:45;;;;;;;1.13;1.13;;;;;;;12.86;100.00;163927.06;4993819;28;20046;-68
2022/09/03 05:27:11;;;;;;;5.75;1.48;;;;;;;12.87;100.00;163929.78;4995098;28;20105;-68
2022/09/03 05:29:36;;;;;;;7.57;1.80;;;;;;;12.88;100.00;163932.47;4993943;28;20050;-67
2022/09/03 05:32:02;;;;;;;4.75;1.30;;;;;;;12.92;100.00;163943.28;4994964;28;20026;-68
2022/09/03 05:34:28;;;;;;;1.58;1.40;;;;;;;12.94;100.00;163948.69;4981681;28;20914;-67
2022/09/03 05:36:55;;;;;;;2.38;1.65;;;;;;;12.99;100.00;163960.88;4994965;28;20081;-68
2022/09/03 05:39:20;;;;;;;3.05;1.50;;;;;;;13.01;100.00;163966.28;4994338;28;20038;-68
2022/09/03 05:41:49;;;;;;;1.60;1.48;;;;;;;13.06;100.00;163979.78;4994406;28;20077;-68
2022/09/03 05:44:14;;;;;;;1.98;1.77;;;;;;;13.09;100.00;163987.91;4993995;28;20042;-68
2022/09/03 05:46:39;;;;;;;3.22;1.73;;;;;;;13.12;100.00;163994.66;4994387;28;20034;-68
2022/09/03 05:49:06;;;;;;;1.42;1.27;;;;;;;13.17;100.00;164009.56;4993186;28;20049;-68
2022/09/03 05:51:33;;;;;;;5.40;1.80;;;;;;;13.17;100.00;164008.19;4994723;28;20064;-68
2022/09/03 05:53:59;;;;;;;5.85;1.77;;;;;;;13.29;100.00;164039.28;4993209;28;20100;-67
2022/09/03 05:56:27;;;;;;;7.03;1.55;;;;;;;13.37;100.00;164059.53;4994341;28;20034;-68
2022/09/03 05:58:54;;;;;;;6.43;1.58;;;;;;;13.45;100.00;164081.22;4993114;28;20033;-68
2022/09/03 06:01:21;;;;;;;1.87;1.60;;;;;;;13.52;100.00;164100.16;4993823;28;20045;-68
2022/09/03 06:03:57;;;;;;;15.50;2.40;;;;;;;13.62;100.00;164127.22;4993120;28;20429;-67
2022/09/03 06:06:24;;;;;;;8.52;1.70;;;;;;;13.72;100.00;164151.56;4995313;28;20037;-62
2022/09/03 06:08:53;;;;;;;5.32;2.47;;;;;;;13.82;100.00;164177.25;4993544;28;20324;-61
2022/09/03 06:11:20;;;;;;;2.33;1.55;;;;;;;13.89;100.00;164197.53;4994689;28;20026;-62
2022/09/03 06:13:46;;;;;;;2.65;1.50;;;;;;;14.00;100.00;164225.94;4992916;28;20105;-64
2022/09/03 06:16:12;;;;;;;7.43;2.08;;;;;;;14.12;100.00;164257.03;4994625;28;20105;-66
2022/09/03 06:18:37;;;;;;;3.92;2.55;;;;;;;14.22;100.00;164284.13;4994263;28;20046;-66
2022/09/03 06:21:05;;;;;;;5.18;1.85;;;;;;;14.34;100.00;164315.22;4993396;28;20038;-64
2022/09/03 06:23:31;;;;;;;3.88;1.90;;;;;;;14.44;100.00;164340.94;4993526;28;20030;-64
2022/09/03 06:26:08;;;;;;;8.90;1.77;;;;;;;14.55;100.00;164369.34;4991900;28;20042;-64
2022/09/03 06:28:35;;;;;;;5.30;1.50;;;;;;;14.66;100.00;164399.19;4992128;28;20101;-64
2022/09/03 06:31:02;;;;;;;8.57;2.08;;;;;;;14.76;100.00;164424.88;4991693;28;20058;-65
2022/09/03 06:33:32;;;;;;;7.60;2.33;;;;;;;14.86;100.00;164451.91;4992981;28;20041;-65
2022/09/03 06:35:59;;;;;;;10.90;1.83;;;;;;;14.98;100.00;164481.72;4992596;28;20054;-64
2022/09/03 06:38:26;;;;;;;3.58;1.60;;;;;;;15.09;100.00;164511.47;4994383;28;20026;-65
2022/09/03 06:40:56;;;;;;;10.75;2.42;;;;;;;15.18;100.00;164534.50;4992038;28;20530;-65
2022/09/03 06:43:22;;;;;;;4.47;2.55;;;;;;;15.33;100.00;164575.13;4994173;28;20115;-65
2022/09/03 06:46:04;;;;;;;6.68;1.30;;;;;;;15.47;100.00;164611.66;4992548;28;20058;-65
2022/09/03 06:48:31;;;;;;;27.02;2.40;;;;;;;15.60;100.00;164644.16;4993940;28;20069;-65
2022/09/03 06:51:01;;;;;;;1.90;1.17;;;;;;;15.72;100.00;164676.66;4992686;28;20038;-65
2022/09/03 06:53:33;;;;;;;5.88;2.15;;;;;;;15.84;100.00;164709.19;4993861;28;20053;-65
2022/09/03 06:56:01;;;;;;;6.40;1.30;;;;;;;15.98;100.00;164745.75;4992358;28;20423;-64
2022/09/03 06:58:35;;;;;;;;;;;;;;;16.10;100.00;164776.91;4994319;28;20057;-65
2022/09/03 07:01:09;;;;;;;4.57;1.58;;;;;;;16.25;100.00;164814.81;4992800;28;19914;-64
2022/09/03 07:03:35;;;;;;;4.18;1.83;;;;;;;16.37;100.00;164847.31;4993698;28;20034;-65
2022/09/03 07:06:01;;;;;;;8.45;2.13;;;;;;;16.52;100.00;164885.22;4992139;28;20117;-64
2022/09/03 07:08:27;;;;;;;1.85;1.58;;;;;;;16.59;100.00;164905.59;4994086;28;20095;-65
2022/09/03 07:10:52;;;;;;;9.52;1.13;;;;;;;16.73;100.00;164942.13;4991873;28;20057;-65
2022/09/03 07:13:19;;;;;;;5.15;1.90;;;;;;;16.85;100.00;164971.97;4993901;28;20031;-65
2022/09/03 07:15:44;;;;;;;7.40;1.80;;;;;;;17.00;100.00;165012.66;4991918;28;20062;-65
2022/09/03 07:18:09;;;;;;;5.25;1.25;;;;;;;17.21;100.00;165066.84;4993309;28;20434;-65
2022/09/03 07:20:35;;;;;;;2.33;0.73;;;;;;;17.48;100.00;165137.28;4991844;28;20109;-66
2022/09/03 07:23:00;;;;;;;1.95;1.42;;;;;;;17.92;100.00;165253.88;4993547;28;20022;-65
2022/09/03 07:25:26;;;;;;;11.15;1.48;;;;;;;18.53;100.00;165415.31;4991647;28;20047;-66
2022/09/03 07:27:52;;;;;;;6.78;1.40;;;;;;;19.03;100.00;165546.88;4993320;28;20026;-65
2022/09/03 07:30:19;;;;;;;5.65;1.20;;;;;;;19.28;100.00;165612.00;4975817;28;20053;-65
2022/09/03 07:32:45;;;;;;;6.75;1.38;;;;;;;19.25;100.00;165603.84;4991128;28;20259;-65
2022/09/03 07:35:12;;;;;;;4.35;1.52;;;;;;;19.37;100.00;165633.72;5002935;28;20568;-66
2022/09/03 07:37:40;;;;;;;2.22;1.45;;;;;;;19.61;100.00;165697.47;4991717;28;20026;-65
2022/09/03 07:40:06;;;;;;;7.70;1.55;;;;;;;19.86;100.00;165764.00;4989760;28;20034;-66
2022/09/03 07:42:31;;;;;;;3.17;0.95;;;;;;;20.39;100.00;165903.84;4993142;28;20038;-65
2022/09/03 07:44:57;;;;;;;2.28;1.15;;;;;;;20.87;100.00;166030.13;4989592;28;20669;-65
2022/09/03 07:47:25;;;;;;;3.35;1.10;;;;;;;21.46;100.00;166184.94;4992093;28;20026;-65
2022/09/03 07:49:50;;;;;;;4.25;0.90;;;;;;;22.23;100.00;166386.06;4987731;28;20042;-65
2022/09/03 07:52:15;;;;;;;4.22;1.42;;;;;;;22.62;93.85;166489.34;5008430;28;20024;-65
2022/09/03 07:54:41;;;;;;;1.38;0.90;;;;;;;22.77;91.18;166528.78;4998237;28;20049;-65
2022/09/03 07:57:06;;;;;;;3.53;1.75;;;;;;;22.86;90.72;166551.88;4992583;28;20029;-64
2022/09/03 07:59:31;;;;;;;3.25;1.00;;;;;;;22.74;88.12;166522.00;4990958;28;20049;-63
2022/09/03 08:01:57;;;;;;;1.45;1.23;;;;;;;22.57;89.66;166475.75;4991761;28;20053;-65
2022/09/03 08:04:23;;;;;;;10.98;2.03;;;;;;;22.12;86.16;166358.84;4990370;28;20061;-65
2022/09/03 08:06:48;;;;;;;2.92;0.90;;;;;;;21.82;87.38;166280.06;4992474;28;20026;-65
2022/09/03 08:09:14;;;;;;;3.38;0.70;;;;;;;21.89;88.65;166296.34;4991033;28;20093;-65
2022/09/03 08:11:42;;;;;;;1.52;1.30;;;;;;;22.16;89.08;166369.72;4991347;28;20057;-65
2022/09/03 08:14:10;;;;;;;2.55;1.23;;;;;;;22.35;87.93;166418.66;4991384;28;20034;-65
2022/09/03 08:16:38;;;;;;;3.53;1.25;;;;;;;22.50;85.77;166459.47;4992060;28;20425;-65
2022/09/03 08:19:04;;;;;;;5.25;1.65;;;;;;;22.70;81.76;166511.09;4988781;28;20581;-65
2022/09/03 08:21:30;;;;;;;6.07;1.55;;;;;;;23.04;82.60;166599.44;4989640;28;20035;-64
2022/09/03 08:24:01;;;;;;;1.33;1.08;;;;;;;23.25;80.38;166656.56;4989736;28;20060;-64
2022/09/03 08:26:27;;;;;;;2.30;1.15;;;;;;;23.42;79.76;166701.41;4991986;28;20148;-64
2022/09/03 08:28:53;;;;;;;7.00;1.50;;;;;;;23.64;79.17;166758.56;4990382;28;20354;-64
2022/09/03 08:31:20;;;;;;;1.73;1.10;;;;;;;23.63;78.28;166755.84;4991821;28;20049;-65
2022/09/03 08:33:50;;;;;;;0.85;0.85;;;;;;;23.76;80.54;166791.19;4990390;28;20502;-64
2022/09/03 08:36:18;;;;;;;4.35;1.20;;;;;;;23.79;79.33;166796.63;4992277;28;20022;-65
2022/09/03 08:38:45;;;;;;;3.53;0.90;;;;;;;23.52;78.08;166727.28;4990239;28;20513;-61
2022/09/03 08:41:16;;;;;;;1.23;1.00;;;;;;;23.12;79.08;166622.53;4989416;28;20096;-61
2022/09/03 08:43:53;;;;;;;2.67;1.02;;;;;;;22.79;79.69;166535.56;4989349;28;20049;-61
2022/09/03 08:46:20;;;;;;;5.75;1.00;;;;;;;22.59;80.69;166482.53;4991506;28;20034;-61
2022/09/03 08:48:47;;;;;;;4.22;1.20;;;;;;;22.58;83.25;166478.47;4990034;28;20029;-61
2022/09/03 08:51:15;;;;;;;2.05;1.48;;;;;;;22.54;80.91;166467.59;4991818;28;20097;-61
2022/09/03 08:53:49;;;;;;;7.03;1.52;;;;;;;22.19;80.90;166376.50;4989758;28;20117;-61
2022/09/03 08:56:23;;;;;;;4.97;1.98;;;;;;;22.23;81.50;166386.06;4991385;28;20053;-60
2022/09/03 08:58:48;;;;;;;6.85;1.75;;;;;;;22.33;83.36;166413.19;4990265;28;20033;-61
2022/09/03 09:01:33;;;;;;;4.78;1.50;;;;;;;22.51;82.42;166460.81;4991685;28;20019;-61
2022/09/03 09:04:15;;;;;;;4.65;1.52;;;;;;;22.87;84.09;166554.59;4990379;28;20100;-61
2022/09/03 09:06:49;;;;;;;6.95;2.00;;;;;;;23.29;82.52;166667.47;4991374;28;20051;-61
2022/09/03 09:09:53;;;;;;;2.58;1.27;;;;;;;23.51;79.11;166723.19;4989102;28;20053;-61
2022/09/03 09:12:31;;;;;;;4.13;0.93;;;;;;;23.62;78.04;166753.13;4972053;28;20038;-61
2022/09/03 09:15:05;;;;;;;;;;;;;;;23.83;78.52;166807.50;4983194;28;20050;-60
2022/09/03 09:17:33;;;;;;;7.88;2.35;;;;;;;23.88;79.12;166821.06;4990744;28;19914;-62
2022/09/03 09:19:59;;;;;;;14.00;1.70;;;;;;;23.77;75.27;166792.53;4990357;28;20777;-61
2022/09/03 09:22:43;;;;;;;4.43;0.93;;;;;;;23.68;76.65;166769.41;4991463;28;20031;-61
2022/09/03 09:25:15;;;;;;;5.60;1.10;;;;;;;24.07;76.93;166872.84;4989470;28;20046;-61
2022/09/03 09:27:50;;;;;;;5.07;1.13;;;;;;;24.15;75.77;166891.88;4991281;28;20071;-62
2022/09/03 09:30:17;;;;;;;5.88;1.38;;;;;;;24.35;75.19;166946.25;4970328;28;20422;-62
2022/09/03 09:32:42;;;;;;;33.50;5.63;;;;;;;24.53;73.74;166992.53;4987858;28;20025;-62
2022/09/03 09:35:09;;;;;;;5.90;1.42;;;;;;;24.96;73.77;167106.84;4989614;28;20038;-61
2022/09/03 09:37:46;;;;;;;6.25;1.58;;;;;;;25.17;72.10;167161.25;4989940;28;20031;-62
2022/09/03 09:40:24;;;;;;;3.80;1.20;;;;;;;25.22;69.87;167174.84;4989860;28;20042;-62
2022/09/03 09:42:49;;;;;;;4.05;1.70;;;;;;;25.41;72.03;167223.91;4991230;28;20379;-62
2022/09/03 09:45:15;;;;;;;7.60;1.30;;;;;;;25.35;70.50;167210.22;4989383;28;20038;-62
2022/09/03 09:47:41;;;;;;;2.20;1.38;;;;;;;25.32;69.73;167202.06;4990693;28;20026;-62
2022/09/03 09:50:16;;;;;;;8.57;1.20;;;;;;;25.38;70.08;167215.66;4989438;28;20042;-62
2022/09/03 09:52:44;;;;;;;4.78;1.73;;;;;;;25.25;68.29;167183.03;4990817;28;20026;-62
2022/09/03 09:55:18;;;;;;;5.60;1.20;;;;;;;25.28;69.49;167191.16;4989729;28;20129;-62
2022/09/03 09:57:44;;;;;;;11.05;1.83;;;;;;;25.08;67.74;167136.75;4990955;28;20040;-62
2022/09/03 10:00:14;;;;;;;5.60;2.17;;;;;;;24.55;67.98;166997.94;4989443;28;20576;-62
2022/09/03 10:02:47;;;;;;;3.05;1.08;;;;;;;24.90;69.52;167090.53;4990928;28;20037;-62
2022/09/03 10:05:19;;;;;;;4.40;1.35;;;;;;;25.13;68.24;167151.72;4989914;28;20042;-62
2022/09/03 10:08:04;;;;;;;1.20;1.00;;;;;;;25.47;68.33;167241.56;4990628;28;20057;-62
2022/09/03 10:10:36;;;;;;;6.57;1.20;;;;;;;25.74;67.86;167310.97;4974062;28;20117;-62
2022/09/03 10:13:08;;;;;;;2.67;1.17;;;;;;;26.02;67.51;167384.50;4975643;28;20070;-63
2022/09/03 10:15:45;;;;;;;2.28;1.15;;;;;;;26.22;67.43;167439.00;4973262;28;20481;-62
2022/09/03 10:18:16;;;;;;;3.53;1.20;;;;;;;26.04;64.81;167389.91;4994348;28;20129;-62
2022/09/03 10:20:54;;;;;;;4.25;1.15;;;;;;;25.86;66.98;167343.66;4992693;28;20038;-62
2022/09/03 10:23:32;;;;;;;9.32;1.40;;;;;;;26.00;67.16;167380.38;4993847;28;20466;-62
2022/09/03 10:26:08;;;;;;;3.75;1.00;;;;;;;26.01;65.11;167383.13;4992662;28;20425;-62
2022/09/03 10:28:40;;;;;;;5.75;1.40;;;;;;;26.16;65.74;167421.28;4994081;28;20061;-62
2022/09/03 10:31:35;;;;;;;2.47;0.93;;;;;;;26.22;64.61;167439.00;4973377;28;20075;-62
2022/09/03 10:34:09;;;;;;;6.28;1.08;;;;;;;26.25;64.05;167445.78;4976052;28;20097;-61
2022/09/03 10:36:49;;;;;;;4.32;0.98;;;;;;;26.32;64.02;167464.84;4993636;28;20061;-62
2022/09/03 10:39:41;;;;;;;3.90;1.20;;;;;;;26.47;62.93;167502.97;4992319;28;20042;-62
2022/09/03 10:42:24;;;;;;;4.13;1.27;;;;;;;26.41;62.95;167487.97;4994218;28;20034;-62
2022/09/03 10:45:03;;;;;;;3.50;0.82;;;;;;;26.44;61.35;167496.16;4991780;28;20409;-61
2022/09/03 10:47:56;;;;;;;5.93;0.90;;;;;;;26.48;62.12;167507.03;4993656;28;20039;-62
2022/09/03 10:50:27;;;;;;;4.28;0.98;;;;;;;26.47;61.73;167504.34;4992634;28;20042;-62
2022/09/03 10:53:11;;;;;;;5.60;1.30;;;;;;;26.56;63.31;167528.81;4993684;28;20033;-62
2022/09/03 10:55:59;;;;;;;7.57;1.45;;;;;;;26.74;62.37;167575.13;4992224;28;20409;-62
2022/09/03 10:58:27;;;;;;;;;;;;;;;26.56;61.24;167527.47;4993972;28;20026;-63
2022/09/03 11:01:01;;;;;;;3.60;1.52;;;;;;;26.70;61.26;167564.22;4992055;28;19940;-62
2022/09/03 11:03:37;;;;;;;5.10;1.30;;;;;;;26.64;60.56;167547.88;4993687;28;20038;-62
2022/09/03 11:06:23;;;;;;;2.25;1.25;;;;;;;26.66;60.64;167553.34;4992251;28;20085;-62
2022/09/03 11:09:10;;;;;;;4.75;1.60;;;;;;;26.60;61.59;167539.75;4986306;28;20438;-61
2022/09/03 11:11:44;;;;;;;10.65;1.63;;;;;;;26.85;61.35;167603.78;4974159;28;20462;-62
2022/09/03 11:14:14;;;;;;;4.25;1.17;;;;;;;26.98;61.25;167637.84;4988893;28;20050;-59
2022/09/03 11:16:56;;;;;;;8.73;1.15;;;;;;;26.96;59.90;167632.38;4992378;28;20029;-59
2022/09/03 11:19:33;;;;;;;1.33;0.85;;;;;;;26.80;59.67;167591.50;4991278;28;20118;-57
2022/09/03 11:21:59;;;;;;;3.53;1.25;;;;;;;26.83;59.58;167599.72;4987237;28;20037;-60
2022/09/03 11:24:28;;;;;;;3.25;1.77;;;;;;;26.59;59.86;167537.00;4992044;28;20042;-60
2022/09/03 11:27:04;;;;;;;4.40;1.02;;;;;;;26.65;61.29;167550.59;4992430;28;20359;-61
2022/09/03 11:29:36;;;;;;;1.17;0.90;;;;;;;26.75;61.38;167577.88;4990866;28;20051;-62
2022/09/03 11:32:09;;;;;;;1.20;1.10;;;;;;;26.74;60.44;167575.13;4993685;28;20030;-63
2022/09/03 11:34:46;;;;;;;1.83;1.10;;;;;;;26.78;60.32;167586.06;4991851;28;20034;-62
2022/09/03 11:37:25;;;;;;;5.95;1.40;;;;;;;26.99;60.87;167640.56;4992854;28;20050;-62
2022/09/03 11:40:04;;;;;;;3.47;1.23;;;;;;;26.97;60.47;167635.09;4988957;28;20046;-62